createdAt,value
2023-01-26T00:01:19.362Z,100317.19
2023-01-26T00:03:46.793Z,100316.47
2023-01-26T00:06:16.055Z,100316.00
2023-01-26T00:08:44.662Z,100317.75
2023-01-26T00:11:12.089Z,100315.34
2023-01-26T00:13:39.590Z,100312.56
2023-01-26T00:16:10.485Z,100313.16
2023-01-26T00:18:39.188Z,100318.47
2023-01-26T00:21:07.072Z,100314.84
2023-01-26T00:23:35.189Z,100309.22
2023-01-26T00:26:05.728Z,100314.38
2023-01-26T00:28:32.411Z,100304.84
2023-01-26T00:31:13.170Z,100300.19
2023-01-26T00:33:40.295Z,100296.78
2023-01-26T00:36:07.976Z,100296.19
2023-01-26T00:38:35.316Z,100291.06
2023-01-26T00:41:02.130Z,100290.31
2023-01-26T00:43:29.194Z,100284.41
2023-01-26T00:45:55.895Z,100280.94
2023-01-26T00:48:24.669Z,100284.06
2023-01-26T00:50:53.303Z,100289.50
2023-01-26T00:53:20.327Z,100296.59
2023-01-26T00:55:47.130Z,100297.31
2023-01-26T00:58:13.838Z,100300.91
2023-01-26T01:00:40.664Z,100291.16
2023-01-26T01:03:07.851Z,100288.00
2023-01-26T01:05:35.180Z,100288.38
2023-01-26T01:08:02.533Z,100284.91
2023-01-26T01:10:29.477Z,100277.28
2023-01-26T01:12:59.166Z,100280.44
2023-01-26T01:15:25.930Z,100286.09
2023-01-26T01:17:53.101Z,100275.91
2023-01-26T01:20:19.909Z,100282.38
2023-01-26T01:22:46.682Z,100285.28
2023-01-26T01:25:13.468Z,100276.00
2023-01-26T01:27:40.225Z,100281.91
2023-01-26T01:32:49.789Z,100289.72
2023-01-26T01:35:16.460Z,100282.41
2023-01-26T01:37:43.102Z,100286.09
2023-01-26T01:40:14.877Z,100284.31
2023-01-26T01:42:50.684Z,100274.94
2023-01-26T01:45:27.176Z,100273.22
2023-01-26T01:47:59.590Z,100268.75
2023-01-26T01:50:27.523Z,100261.66
2023-01-26T01:52:55.895Z,100260.97
2023-01-26T01:55:23.424Z,100255.22
2023-01-26T01:57:55.332Z,100252.31
2023-01-26T02:00:24.034Z,100252.31
2023-01-26T02:03:13.076Z,100255.44
2023-01-26T02:06:03.800Z,100250.88
2023-01-26T02:08:37.857Z,100238.34
2023-01-26T02:11:13.107Z,100229.31
2023-01-26T02:13:42.499Z,100227.66
2023-01-26T02:16:09.353Z,100223.34
2023-01-26T02:18:36.377Z,100216.09
2023-01-26T02:21:08.799Z,100212.75
2023-01-26T02:23:54.027Z,100215.69
2023-01-26T02:26:33.612Z,100212.44
2023-01-26T02:29:02.141Z,100216.69
2023-01-26T02:31:29.366Z,100202.03
2023-01-26T02:33:58.855Z,100193.06
2023-01-26T02:36:29.552Z,100194.59
2023-01-26T02:39:13.165Z,100182.03
2023-01-26T02:41:59.061Z,100176.53
2023-01-26T02:44:29.291Z,100182.75
2023-01-26T02:46:59.143Z,100184.69
2023-01-26T02:49:44.701Z,100176.16
2023-01-26T02:55:05.841Z,100174.28
2023-01-26T02:57:34.611Z,100173.03
2023-01-26T03:00:01.851Z,100174.09
2023-01-26T03:02:28.873Z,100168.47
2023-01-26T03:04:55.668Z,100171.50
2023-01-26T03:07:22.618Z,100170.47
2023-01-26T03:09:49.490Z,100169.06
2023-01-26T03:12:16.178Z,100166.16
2023-01-26T03:14:43.536Z,100161.75
2023-01-26T03:17:10.289Z,100161.63
2023-01-26T03:19:55.419Z,100164.47
2023-01-26T03:22:40.610Z,100161.75
2023-01-26T03:27:51.596Z,100164.09
2023-01-26T03:30:21.184Z,100156.16
2023-01-26T03:32:48.066Z,100158.34
2023-01-26T03:35:23.073Z,100159.94
2023-01-26T03:37:55.126Z,100158.50
2023-01-26T03:40:40.954Z,100153.50
2023-01-26T03:43:13.156Z,100151.75
2023-01-26T03:45:58.714Z,100150.88
2023-01-26T03:48:45.695Z,100155.63
2023-01-26T03:51:12.225Z,100162.59
2023-01-26T03:53:57.408Z,100157.25
2023-01-26T03:56:32.978Z,100150.16
2023-01-26T03:59:08.518Z,100153.56
2023-01-26T04:01:38.016Z,100148.00
2023-01-26T04:04:13.655Z,100160.72
2023-01-26T04:07:02.421Z,100158.00
2023-01-26T04:09:29.722Z,100153.34
2023-01-26T04:11:57.196Z,100158.63
2023-01-26T04:14:49.419Z,100152.00
2023-01-26T04:17:36.864Z,100157.28
2023-01-26T04:20:13.154Z,100151.63
2023-01-26T04:22:45.355Z,100149.34
2023-01-26T04:25:13.172Z,100152.25
2023-01-26T04:27:41.978Z,100154.00
2023-01-26T04:30:13.488Z,100149.44
2023-01-26T04:32:40.356Z,100146.06
2023-01-26T04:35:09.471Z,100139.09
2023-01-26T04:37:37.671Z,100147.03
2023-01-26T04:40:06.110Z,100143.72
2023-01-26T04:42:32.872Z,100141.66
2023-01-26T04:44:59.581Z,100145.09
2023-01-26T04:47:28.905Z,100143.19
2023-01-26T04:49:56.005Z,100144.16
2023-01-26T04:52:23.230Z,100141.28
2023-01-26T04:54:50.097Z,100141.50
2023-01-26T04:57:16.934Z,100142.97
2023-01-26T04:59:43.814Z,100141.19
2023-01-26T05:02:10.790Z,100137.47
2023-01-26T05:04:37.569Z,100138.25
2023-01-26T05:07:05.100Z,100135.50
2023-01-26T05:09:31.800Z,100139.59
2023-01-26T05:12:13.264Z,100144.16
2023-01-26T05:14:40.068Z,100147.16
2023-01-26T05:17:13.251Z,100146.44
2023-01-26T05:19:40.374Z,100144.41
2023-01-26T05:22:07.047Z,100141.28
2023-01-26T05:24:35.300Z,100140.78
2023-01-26T05:29:38.265Z,100136.72
2023-01-26T05:32:05.233Z,100138.06
2023-01-26T05:34:31.941Z,100133.03
2023-01-26T05:36:58.583Z,100134.97
2023-01-26T05:39:25.199Z,100138.19
2023-01-26T05:41:52.342Z,100141.53
2023-01-26T05:44:19.461Z,100138.84
2023-01-26T05:46:46.318Z,100136.34
2023-01-26T05:49:13.032Z,100133.81
2023-01-26T05:51:39.788Z,100132.13
2023-01-26T05:54:06.461Z,100140.31
2023-01-26T05:56:33.217Z,100141.03
2023-01-26T05:59:00.097Z,100143.31
2023-01-26T06:01:26.788Z,100141.38
2023-01-26T06:03:55.086Z,100145.09
2023-01-26T06:06:25.034Z,100142.47
2023-01-26T06:08:51.767Z,100145.22
2023-01-26T06:11:19.458Z,100148.75
2023-01-26T06:13:46.212Z,100138.69
2023-01-26T06:16:13.656Z,100146.06
2023-01-26T06:18:40.370Z,100144.16
2023-01-26T06:21:07.231Z,100140.53
2023-01-26T06:23:34.052Z,100151.53
2023-01-26T06:26:01.801Z,100147.59
2023-01-26T06:28:31.555Z,100145.88
2023-01-26T06:31:03.234Z,100147.03
2023-01-26T06:33:32.517Z,100147.59
2023-01-26T06:36:05.992Z,100145.41
2023-01-26T06:38:32.948Z,100144.91
2023-01-26T06:41:03.479Z,100146.00
2023-01-26T06:43:31.503Z,100147.75
2023-01-26T06:46:02.880Z,100147.25
2023-01-26T06:48:39.062Z,100149.19
2023-01-26T06:51:13.242Z,100155.44
2023-01-26T06:53:44.150Z,100152.84
2023-01-26T06:56:10.936Z,100153.75
2023-01-26T06:58:37.584Z,100156.72
2023-01-26T07:01:04.791Z,100148.91
2023-01-26T07:03:32.074Z,100150.78
2023-01-26T07:05:58.793Z,100153.88
2023-01-26T07:08:25.443Z,100150.78
2023-01-26T07:10:52.163Z,100160.84
2023-01-26T07:13:18.910Z,100153.75
2023-01-26T07:15:45.738Z,100159.34
2023-01-26T07:18:13.309Z,100166.19
2023-01-26T07:20:39.991Z,100164.97
2023-01-26T07:23:07.143Z,100163.56
2023-01-26T07:25:33.762Z,100165.19
2023-01-26T07:28:00.417Z,100159.19
2023-01-26T07:30:27.435Z,100164.53
2023-01-26T07:32:54.789Z,100163.16
2023-01-26T07:35:21.523Z,100163.38
2023-01-26T07:37:48.156Z,100160.53
2023-01-26T07:40:15.000Z,100161.94
2023-01-26T07:42:42.995Z,100160.91
2023-01-26T07:45:10.035Z,100166.16
2023-01-26T07:47:36.789Z,100160.03
2023-01-26T07:50:04.053Z,100160.03
2023-01-26T07:52:30.724Z,100156.16
2023-01-26T07:54:57.436Z,100164.47
2023-01-26T07:57:24.134Z,100153.34
2023-01-26T07:59:50.805Z,100153.31
2023-01-26T08:02:17.462Z,100160.53
2023-01-26T08:04:44.154Z,100153.69
2023-01-26T08:07:10.823Z,100151.28
2023-01-26T08:09:37.690Z,100147.41
2023-01-26T08:12:04.798Z,100142.97
2023-01-26T08:14:46.426Z,100151.28
2023-01-26T08:17:13.943Z,100150.69
2023-01-26T08:19:40.636Z,100158.13
2023-01-26T08:22:07.341Z,100143.03
2023-01-26T08:24:34.070Z,100142.13
2023-01-26T08:27:00.790Z,100147.81
2023-01-26T08:29:27.576Z,100148.72
2023-01-26T08:31:54.431Z,100144.66
2023-01-26T08:34:26.319Z,100141.78
2023-01-26T08:36:53.426Z,100134.78
2023-01-26T08:39:20.065Z,100143.09
2023-01-26T08:41:47.373Z,100149.19
2023-01-26T08:44:14.038Z,100144.66
2023-01-26T08:46:40.691Z,100153.56
2023-01-26T08:49:07.393Z,100155.22
2023-01-26T08:51:34.076Z,100152.38
2023-01-26T08:54:00.782Z,100158.38
2023-01-26T08:56:27.623Z,100147.34
2023-01-26T08:58:54.261Z,100149.84
2023-01-26T09:01:20.899Z,100148.59
2023-01-26T09:03:47.650Z,100148.00
2023-01-26T09:06:16.002Z,100150.56
2023-01-26T09:08:42.684Z,100153.56
2023-01-26T09:11:09.749Z,100150.03
2023-01-26T09:13:37.529Z,100174.97
2023-01-26T09:16:08.635Z,100178.66
2023-01-26T09:18:35.298Z,100164.78
2023-01-26T09:21:06.740Z,100171.84
2023-01-26T09:23:34.730Z,100166.88
2023-01-26T09:26:02.061Z,100171.69
2023-01-26T09:28:28.864Z,100165.47
2023-01-26T09:30:55.765Z,100171.75
2023-01-26T09:33:23.107Z,100170.53
2023-01-26T09:35:52.428Z,100165.72
2023-01-26T09:38:19.230Z,100161.69
2023-01-26T09:40:59.907Z,100173.78
2023-01-26T09:43:39.886Z,100178.66
2023-01-26T09:46:12.394Z,100176.72
2023-01-26T09:49:06.054Z,100180.28
2023-01-26T09:51:40.041Z,100184.28
2023-01-26T09:54:13.322Z,100185.09
2023-01-26T09:56:40.362Z,100184.00
2023-01-26T09:59:12.381Z,100174.25
2023-01-26T10:02:04.796Z,100178.66
2023-01-26T10:04:36.882Z,100183.84
2023-01-26T10:07:09.770Z,100180.50
2023-01-26T10:09:38.809Z,100178.47
2023-01-26T10:12:13.428Z,100175.31
2023-01-26T10:14:45.519Z,100179.19
2023-01-26T10:17:13.411Z,100179.19
2023-01-26T10:19:45.520Z,100178.41
2023-01-26T10:22:13.511Z,100172.16
2023-01-26T10:24:40.514Z,100172.28
2023-01-26T10:27:13.351Z,100166.06
2023-01-26T10:29:40.054Z,100162.16
2023-01-26T10:32:14.366Z,100155.75
2023-01-26T10:34:42.436Z,100163.13
2023-01-26T10:37:13.512Z,100165.69
2023-01-26T10:39:58.948Z,100154.34
2023-01-26T10:42:29.506Z,100155.75
2023-01-26T10:44:59.286Z,100152.06
2023-01-26T10:47:27.635Z,100144.38
2023-01-26T10:50:12.408Z,100150.72
2023-01-26T10:52:39.175Z,100149.03
2023-01-26T10:55:12.783Z,100151.34
2023-01-26T10:57:42.075Z,100140.13
2023-01-26T11:00:13.451Z,100141.28
2023-01-26T11:02:50.839Z,100137.66
2023-01-26T11:05:25.508Z,100146.25
2023-01-26T11:07:58.877Z,100144.56
2023-01-26T11:10:35.044Z,100138.47
2023-01-26T11:13:13.563Z,100133.06
2023-01-26T11:15:47.909Z,100127.72
2023-01-26T11:18:42.921Z,100113.22
2023-01-26T11:21:17.106Z,100118.78
2023-01-26T11:24:09.065Z,100108.47
2023-01-26T11:26:44.760Z,100109.38
2023-01-26T11:32:06.324Z,100104.66
2023-01-26T11:34:44.634Z,100096.09
2023-01-26T11:37:13.740Z,100093.13
2023-01-26T11:40:13.515Z,100092.31
2023-01-26T11:43:05.342Z,100101.28
2023-01-26T11:46:05.793Z,100088.13
2023-01-26T11:48:54.193Z,100087.19
2023-01-26T11:51:45.599Z,100084.78
2023-01-26T11:54:12.494Z,100084.91
2023-01-26T11:56:49.025Z,100082.75
2023-01-26T11:59:30.305Z,100073.34
2023-01-26T12:02:04.647Z,100076.63
2023-01-26T12:04:41.909Z,100076.34
2023-01-26T12:07:13.465Z,100070.47
2023-01-26T12:09:45.730Z,100064.88
2023-01-26T12:12:13.482Z,100070.75
2023-01-26T12:14:43.701Z,100066.00
2023-01-26T12:17:18.535Z,100072.34
2023-01-26T12:20:11.074Z,100069.44
2023-01-26T12:22:40.671Z,100066.78
2023-01-26T12:25:19.427Z,100061.13
2023-01-26T12:27:56.059Z,100054.50
2023-01-26T12:30:30.869Z,100043.63
2023-01-26T12:32:57.672Z,100042.25
2023-01-26T12:36:05.676Z,100036.31
2023-01-26T12:38:35.271Z,100038.94
2023-01-26T12:41:13.481Z,100035.78
2023-01-26T12:43:57.210Z,100032.88
2023-01-26T12:46:27.272Z,100031.84
2023-01-26T12:49:03.038Z,100033.13
2023-01-26T12:51:33.144Z,100024.19
2023-01-26T12:54:06.557Z,100028.59
2023-01-26T12:56:48.291Z,100027.09
2023-01-26T12:59:39.733Z,100026.28
2023-01-26T13:02:13.605Z,100029.28
2023-01-26T13:04:42.552Z,100018.56
2023-01-26T13:07:13.499Z,100025.97
2023-01-26T13:10:13.704Z,100026.56
2023-01-26T13:13:01.140Z,100025.50
2023-01-26T13:15:32.502Z,100013.66
2023-01-26T13:18:04.550Z,100015.88
2023-01-26T13:20:40.430Z,100018.25
2023-01-26T13:23:13.488Z,100021.16
2023-01-26T13:25:40.247Z,100015.53
2023-01-26T13:28:12.498Z,100018.38
2023-01-26T13:30:44.021Z,100020.25
2023-01-26T13:33:13.509Z,100017.13
2023-01-26T13:35:41.106Z,100024.03
2023-01-26T13:38:13.567Z,100021.84
2023-01-26T13:40:44.112Z,100027.34
2023-01-26T13:43:25.623Z,100028.75
2023-01-26T13:46:14.797Z,100030.19
2023-01-26T13:48:47.872Z,100029.91
2023-01-26T13:51:19.041Z,100033.59
2023-01-26T13:54:13.444Z,100027.59
2023-01-26T13:56:43.196Z,100025.50
2023-01-26T14:01:49.288Z,100023.94
2023-01-26T14:04:24.231Z,100024.06
2023-01-26T14:06:57.170Z,100023.34
2023-01-26T14:09:28.092Z,100021.81
2023-01-26T14:12:04.014Z,100028.38
2023-01-26T14:14:35.185Z,100021.84
2023-01-26T14:17:07.820Z,100028.91
2023-01-26T14:19:40.415Z,100033.34
2023-01-26T14:22:12.599Z,100038.19
2023-01-26T14:24:41.448Z,100035.28
2023-01-26T14:27:13.534Z,100039.22
2023-01-26T14:29:40.278Z,100033.34
2023-01-26T14:32:13.538Z,100033.28
2023-01-26T14:34:53.057Z,100032.31
2023-01-26T14:37:19.926Z,100042.41
2023-01-26T14:39:48.297Z,100042.25
2023-01-26T14:42:19.117Z,100043.22
2023-01-26T14:44:46.631Z,100034.66
2023-01-26T14:47:30.470Z,100047.66
2023-01-26T14:50:07.102Z,100055.81
2023-01-26T14:52:39.601Z,100058.50
2023-01-26T14:55:13.479Z,100061.47
2023-01-26T14:57:40.228Z,100062.44
2023-01-26T15:00:10.896Z,100065.56
2023-01-26T15:02:47.177Z,100066.03
2023-01-26T15:05:20.921Z,100070.13
2023-01-26T15:07:59.741Z,100062.72
2023-01-26T15:13:41.797Z,100065.00
2023-01-26T15:16:13.638Z,100062.44
2023-01-26T15:18:40.436Z,100063.97
2023-01-26T15:21:12.614Z,100060.78
2023-01-26T15:23:59.898Z,100063.50
2023-01-26T15:26:31.216Z,100065.09
2023-01-26T15:29:01.107Z,100069.16
2023-01-26T15:31:34.675Z,100067.88
2023-01-26T15:34:02.292Z,100075.31
2023-01-26T15:36:47.799Z,100069.91
2023-01-26T15:39:16.893Z,100072.66
2023-01-26T15:41:46.505Z,100063.91
2023-01-26T15:44:18.324Z,100065.66
2023-01-26T15:46:45.914Z,100066.38
2023-01-26T15:49:12.836Z,100074.25
2023-01-26T15:51:39.679Z,100072.56
2023-01-26T15:54:06.745Z,100072.31
2023-01-26T15:56:33.651Z,100078.78
2023-01-26T15:59:00.416Z,100080.22
2023-01-26T16:01:27.217Z,100080.00
2023-01-26T16:03:54.097Z,100089.59
2023-01-26T16:06:34.190Z,100086.75
2023-01-26T16:09:00.865Z,100087.09
2023-01-26T16:11:35.327Z,100083.38
2023-01-26T16:14:04.270Z,100089.13
2023-01-26T16:16:32.841Z,100084.56
2023-01-26T16:18:59.998Z,100088.28
2023-01-26T16:21:33.885Z,100091.13
2023-01-26T16:24:04.250Z,100091.66
2023-01-26T16:26:35.774Z,100090.44
2023-01-26T16:29:02.487Z,100086.00
2023-01-26T16:31:32.102Z,100082.88
2023-01-26T16:34:01.130Z,100089.00
2023-01-26T16:36:28.531Z,100091.63
2023-01-26T16:38:55.413Z,100090.78
2023-01-26T16:41:25.585Z,100088.41
2023-01-26T16:43:58.750Z,100090.56
2023-01-26T16:46:26.417Z,100087.69
2023-01-26T16:48:54.289Z,100090.94
2023-01-26T16:51:30.050Z,100092.22
2023-01-26T16:53:57.543Z,100091.75
2023-01-26T16:56:25.415Z,100096.94
2023-01-26T16:58:52.356Z,100094.75
2023-01-26T17:01:42.042Z,100096.06
2023-01-26T17:04:10.754Z,100096.06
2023-01-26T17:06:37.575Z,100090.53
2023-01-26T17:09:05.239Z,100090.78
2023-01-26T17:11:31.919Z,100091.63
2023-01-26T17:13:59.428Z,100083.69
2023-01-26T17:16:33.344Z,100085.66
2023-01-26T17:19:00.125Z,100089.84
2023-01-26T17:21:26.974Z,100089.13
2023-01-26T17:23:55.939Z,100083.59
2023-01-26T17:26:23.497Z,100085.41
2023-01-26T17:28:54.594Z,100078.78
2023-01-26T17:31:25.206Z,100083.34
2023-01-26T17:33:55.312Z,100078.69
2023-01-26T17:36:22.053Z,100079.28
2023-01-26T17:38:55.282Z,100081.91
2023-01-26T17:41:22.032Z,100081.47
2023-01-26T17:43:48.774Z,100084.09
2023-01-26T17:46:17.752Z,100084.31
2023-01-26T17:48:45.568Z,100082.63
2023-01-26T17:51:12.593Z,100092.03
2023-01-26T17:53:44.240Z,100089.59
2023-01-26T17:58:38.789Z,100088.03
2023-01-26T18:01:07.582Z,100085.97
2023-01-26T18:03:35.544Z,100084.78
2023-01-26T18:06:02.298Z,100087.44
2023-01-26T18:08:29.371Z,100093.72
2023-01-26T18:11:00.862Z,100088.19
2023-01-26T18:13:29.219Z,100088.19
2023-01-26T18:15:56.056Z,100093.47
2023-01-26T18:18:28.222Z,100092.38
2023-01-26T18:20:55.540Z,100090.31
2023-01-26T18:23:24.106Z,100096.56
2023-01-26T18:25:53.075Z,100089.47
2023-01-26T18:28:19.846Z,100093.44
2023-01-26T18:30:46.694Z,100097.94
2023-01-26T18:33:13.998Z,100098.47
2023-01-26T18:35:40.916Z,100094.16
2023-01-26T18:38:07.722Z,100096.09
2023-01-26T18:40:34.682Z,100099.94
2023-01-26T18:43:01.577Z,100090.53
2023-01-26T18:45:28.354Z,100091.63
2023-01-26T18:47:55.150Z,100093.22
2023-01-26T18:50:21.903Z,100093.91
2023-01-26T18:52:48.664Z,100094.44
2023-01-26T18:55:15.541Z,100087.44
2023-01-26T18:57:45.308Z,100090.44
2023-01-26T19:02:41.468Z,100093.81
2023-01-26T19:07:39.436Z,100083.72
2023-01-26T19:10:06.649Z,100087.47
2023-01-26T19:12:33.611Z,100088.28
2023-01-26T19:15:00.329Z,100087.69
2023-01-26T19:17:27.099Z,100091.25
2023-01-26T19:19:54.887Z,100090.00
2023-01-26T19:22:23.137Z,100088.19
2023-01-26T19:24:49.906Z,100082.63
2023-01-26T19:27:16.910Z,100084.56
2023-01-26T19:29:43.574Z,100088.19
2023-01-26T19:32:10.403Z,100086.34
2023-01-26T19:34:37.301Z,100089.00
2023-01-26T19:37:04.032Z,100080.47
2023-01-26T19:39:31.683Z,100089.13
2023-01-26T19:42:01.753Z,100082.06
2023-01-26T19:44:28.767Z,100082.69
2023-01-26T19:46:55.989Z,100089.47
2023-01-26T19:49:23.143Z,100088.41
2023-01-26T19:51:54.479Z,100084.19
2023-01-26T19:54:24.506Z,100083.56
2023-01-26T19:56:51.797Z,100080.47
2023-01-26T19:59:18.740Z,100074.50
2023-01-26T20:01:45.463Z,100078.94
2023-01-26T20:04:12.802Z,100080.22
2023-01-26T20:06:39.685Z,100082.63
2023-01-26T20:09:10.801Z,100082.84
2023-01-26T20:11:37.599Z,100098.22
2023-01-26T20:14:08.743Z,100089.13
2023-01-26T20:16:36.102Z,100075.19
2023-01-26T20:19:04.498Z,100077.13
2023-01-26T20:21:32.440Z,100090.88
2023-01-26T20:24:05.261Z,100086.25
2023-01-26T20:26:33.465Z,100084.31
2023-01-26T20:29:00.517Z,100085.75
2023-01-26T20:31:27.873Z,100090.31
2023-01-26T20:33:55.192Z,100089.78
2023-01-26T20:36:25.246Z,100082.13
2023-01-26T20:39:01.726Z,100083.72
2023-01-26T20:41:30.495Z,100082.63
2023-01-26T20:44:01.634Z,100090.53
2023-01-26T20:46:33.696Z,100072.56
2023-01-26T20:49:01.164Z,100078.78
2023-01-26T20:51:36.007Z,100073.75
2023-01-26T20:56:38.417Z,100073.25
2023-01-26T20:59:06.957Z,100075.69
2023-01-26T21:01:44.163Z,100079.75
2023-01-26T21:04:10.901Z,100076.84
2023-01-26T21:06:39.158Z,100073.75
2023-01-26T21:09:06.070Z,100077.34
2023-01-26T21:11:33.604Z,100077.09
2023-01-26T21:14:02.117Z,100075.69
2023-01-26T21:16:31.093Z,100068.72
2023-01-26T21:18:58.517Z,100072.19
2023-01-26T21:21:25.254Z,100075.78
2023-01-26T21:23:52.473Z,100073.50
2023-01-26T21:26:23.785Z,100073.50
2023-01-26T21:28:59.815Z,100073.75
2023-01-26T21:31:30.058Z,100073.75
2023-01-26T21:34:02.970Z,100071.09
2023-01-26T21:36:31.477Z,100066.06
2023-01-26T21:38:59.990Z,100070.13
2023-01-26T21:41:47.865Z,100072.78
2023-01-26T21:44:23.396Z,100067.72
2023-01-26T21:46:55.946Z,100074.44
2023-01-26T21:49:23.945Z,100075.19
2023-01-26T21:52:10.271Z,100067.97
2023-01-26T21:54:37.150Z,100068.22
2023-01-26T21:59:38.146Z,100056.81
2023-01-26T22:02:04.810Z,100057.88
2023-01-26T22:04:31.907Z,100055.00
2023-01-26T22:07:02.060Z,100065.53
2023-01-26T22:09:30.237Z,100059.09
2023-01-26T22:11:56.880Z,100054.53
2023-01-26T22:14:27.696Z,100054.50
2023-01-26T22:16:56.804Z,100050.50
2023-01-26T22:19:24.013Z,100051.28
2023-01-26T22:21:53.608Z,100049.66
2023-01-26T22:24:21.525Z,100053.72
2023-01-26T22:26:49.221Z,100044.38
2023-01-26T22:29:16.142Z,100052.09
2023-01-26T22:31:43.179Z,100043.84
2023-01-26T22:36:38.334Z,100044.88
2023-01-26T22:39:05.187Z,100041.28
2023-01-26T22:41:31.950Z,100035.75
2023-01-26T22:44:01.890Z,100037.13
2023-01-26T22:46:30.608Z,100033.84
2023-01-26T22:48:58.879Z,100034.84
2023-01-26T22:51:30.356Z,100037.00
2023-01-26T22:53:58.427Z,100032.88
2023-01-26T22:56:26.595Z,100033.97
2023-01-26T22:59:00.279Z,100035.78
2023-01-26T23:01:32.856Z,100034.81
2023-01-26T23:04:00.929Z,100039.34
2023-01-26T23:06:28.344Z,100043.53
2023-01-26T23:08:55.449Z,100040.44
2023-01-26T23:11:24.705Z,100043.47
2023-01-26T23:13:53.339Z,100038.69
2023-01-26T23:16:23.238Z,100034.56
2023-01-26T23:18:50.771Z,100034.06
2023-01-26T23:21:17.667Z,100031.47
2023-01-26T23:23:44.845Z,100027.84
2023-01-26T23:28:40.909Z,100027.13
2023-01-26T23:31:09.033Z,100018.56
2023-01-26T23:33:36.726Z,100028.81
2023-01-26T23:36:04.448Z,100029.69
2023-01-26T23:38:31.352Z,100027.84
2023-01-26T23:41:00.477Z,100026.16
2023-01-26T23:43:27.720Z,100019.91
2023-01-26T23:45:56.745Z,100019.88
2023-01-26T23:48:24.738Z,100029.16
2023-01-26T23:51:08.938Z,100027.59
2023-01-26T23:53:37.071Z,100027.84
2023-01-26T23:56:10.322Z,100014.88
2023-01-26T23:58:37.648Z,100018.19
